createdAt,value
2018-03-08T00:01:56.290Z,2.73
2018-03-08T00:04:23.842Z,2.53
2018-03-08T00:06:51.545Z,1.80
2018-03-08T00:09:19.098Z,1.50
2018-03-08T00:11:46.645Z,1.50
2018-03-08T00:14:14.353Z,1.67
2018-03-08T00:16:41.908Z,1.50
2018-03-08T00:19:09.441Z,2.00
2018-03-08T00:21:37.317Z,1.97
2018-03-08T00:24:04.881Z,2.40
2018-03-08T00:26:32.414Z,3.73
2018-03-08T00:29:00.002Z,2.90
2018-03-08T00:31:27.538Z,3.37
2018-03-08T00:33:55.097Z,4.20
2018-03-08T00:36:22.844Z,4.47
2018-03-08T00:38:50.390Z,5.90
2018-03-08T00:41:17.934Z,4.57
2018-03-08T00:43:45.525Z,5.30
2018-03-08T00:46:13.079Z,4.67
2018-03-08T00:48:40.623Z,4.83
2018-03-08T00:51:08.490Z,4.70
2018-03-08T00:53:36.029Z,5.73
2018-03-08T00:56:03.573Z,8.90
2018-03-08T00:58:31.250Z,11.47
2018-03-08T01:00:58.835Z,12.67
2018-03-08T01:03:26.388Z,13.60
2018-03-08T01:05:54.151Z,11.53
2018-03-08T01:08:21.705Z,16.83
2018-03-08T01:10:49.245Z,18.67
2018-03-08T01:13:17.002Z,17.07
2018-03-08T01:15:44.557Z,13.60
2018-03-08T01:18:12.098Z,13.70
2018-03-08T01:20:39.673Z,14.37
2018-03-08T01:23:07.277Z,14.07
2018-03-08T01:25:34.798Z,12.87
2018-03-08T01:28:02.370Z,12.07
2018-03-08T01:30:29.956Z,8.00
2018-03-08T01:32:57.484Z,5.73
2018-03-08T01:35:25.345Z,4.10
2018-03-08T01:37:52.884Z,3.33
2018-03-08T01:40:20.447Z,3.43
2018-03-08T01:42:48.296Z,3.20
2018-03-08T01:45:15.839Z,2.93
2018-03-08T01:47:43.386Z,3.60
2018-03-08T01:50:11.062Z,4.07
2018-03-08T01:52:38.597Z,6.20
2018-03-08T01:55:06.155Z,11.87
2018-03-08T01:57:33.754Z,15.37
2018-03-08T02:00:01.310Z,16.73
2018-03-08T02:02:28.853Z,15.87
2018-03-08T02:04:56.585Z,15.57
2018-03-08T02:07:24.122Z,15.60
2018-03-08T02:09:51.681Z,17.27
2018-03-08T02:12:19.257Z,17.80
2018-03-08T02:14:46.797Z,19.67
2018-03-08T02:17:14.341Z,17.37
2018-03-08T02:19:41.921Z,17.67
2018-03-08T02:22:09.470Z,16.93
2018-03-08T02:24:37.053Z,16.60
2018-03-08T02:27:04.641Z,15.83
2018-03-08T02:29:32.195Z,13.43
2018-03-08T02:31:59.764Z,14.17
2018-03-08T02:34:27.487Z,13.37
2018-03-08T02:36:55.041Z,11.70
2018-03-08T02:39:22.595Z,11.10
2018-03-08T02:41:50.267Z,15.30
2018-03-08T02:44:17.818Z,12.40
2018-03-08T02:46:45.380Z,12.07
2018-03-08T02:49:12.950Z,13.13
2018-03-08T02:51:40.496Z,14.63
2018-03-08T02:54:08.054Z,17.37
2018-03-08T02:56:35.737Z,18.60
2018-03-08T02:59:03.291Z,18.73
2018-03-08T03:01:30.834Z,20.03
2018-03-08T03:03:58.412Z,18.87
2018-03-08T03:06:25.959Z,19.10
2018-03-08T03:08:53.538Z,20.10
2018-03-08T03:11:21.117Z,21.57
2018-03-08T03:13:48.661Z,20.97
2018-03-08T03:16:16.215Z,21.93
2018-03-08T03:18:43.763Z,19.97
2018-03-08T03:21:11.297Z,18.83
2018-03-08T03:23:39.168Z,18.97
2018-03-08T03:26:06.738Z,19.23
2018-03-08T03:28:34.296Z,19.07
2018-03-08T03:31:02.087Z,19.07
2018-03-08T03:33:29.626Z,18.47
2018-03-08T03:35:57.165Z,19.53
2018-03-08T03:38:24.886Z,19.73
2018-03-08T03:40:52.431Z,21.47
2018-03-08T03:43:19.978Z,21.03
2018-03-08T03:45:47.962Z,20.93
2018-03-08T03:48:15.498Z,24.33
2018-03-08T03:50:43.041Z,25.90
2018-03-08T03:53:10.622Z,24.83
2018-03-08T03:55:38.179Z,23.30
2018-03-08T03:58:05.722Z,25.93
2018-03-08T04:00:33.398Z,25.17
2018-03-08T04:03:00.943Z,25.27
2018-03-08T04:05:28.487Z,25.97
2018-03-08T04:07:56.079Z,26.70
2018-03-08T04:10:23.626Z,26.80
2018-03-08T04:12:51.165Z,27.33
2018-03-08T04:15:18.912Z,26.03
2018-03-08T04:17:46.474Z,26.37
2018-03-08T04:20:14.021Z,26.03
2018-03-08T04:22:41.624Z,25.77
2018-03-08T04:25:09.182Z,24.43
2018-03-08T04:27:36.734Z,25.70
2018-03-08T04:30:04.441Z,25.63
2018-03-08T04:32:31.993Z,45.90
2018-03-08T04:34:59.536Z,39.30
2018-03-08T04:37:27.126Z,29.70
2018-03-08T04:39:54.669Z,26.13
2018-03-08T04:42:22.210Z,36.33
2018-03-08T04:44:49.912Z,29.57
2018-03-08T04:47:17.461Z,31.80
2018-03-08T04:49:45.007Z,28.50
2018-03-08T04:52:12.734Z,26.40
2018-03-08T04:54:40.282Z,24.07
2018-03-08T04:57:07.825Z,22.53
2018-03-08T04:59:35.409Z,21.13
2018-03-08T05:02:02.965Z,22.60
2018-03-08T05:04:30.523Z,21.87
2018-03-08T05:06:58.278Z,22.33
2018-03-08T05:09:25.823Z,21.87
2018-03-08T05:11:53.377Z,23.03
2018-03-08T05:14:21.253Z,21.93
2018-03-08T05:16:48.858Z,21.50
2018-03-08T05:19:16.383Z,21.93
2018-03-08T05:21:43.977Z,27.87
2018-03-08T05:24:11.530Z,23.73
2018-03-08T05:26:39.070Z,26.97
2018-03-08T05:29:06.937Z,29.07
2018-03-08T05:31:34.486Z,30.33
2018-03-08T05:34:02.027Z,29.00
2018-03-08T05:36:29.751Z,28.83
2018-03-08T05:38:57.303Z,34.10
2018-03-08T05:41:24.852Z,34.87
2018-03-08T05:43:52.460Z,46.63
2018-03-08T05:46:19.999Z,37.70
2018-03-08T05:48:47.545Z,40.53
2018-03-08T05:51:15.150Z,43.03
2018-03-08T05:53:42.685Z,43.10
2018-03-08T05:56:10.249Z,37.73
2018-03-08T05:58:37.848Z,43.50
2018-03-08T06:01:05.392Z,32.13
2018-03-08T06:03:32.938Z,33.60
2018-03-08T06:06:00.701Z,31.60
2018-03-08T06:08:28.246Z,31.90
2018-03-08T06:10:55.786Z,30.43
2018-03-08T06:13:23.518Z,28.93
2018-03-08T06:15:51.066Z,28.20
2018-03-08T06:18:18.609Z,30.17
2018-03-08T06:20:46.208Z,28.23
2018-03-08T06:23:13.749Z,27.73
2018-03-08T06:25:41.289Z,28.87
2018-03-08T06:28:08.880Z,27.13
2018-03-08T06:30:36.418Z,26.10
2018-03-08T06:33:03.967Z,26.93
2018-03-08T06:35:31.560Z,28.23
2018-03-08T06:37:59.109Z,28.93
2018-03-08T06:40:26.678Z,43.93
2018-03-08T06:42:54.259Z,41.03
2018-03-08T06:45:21.815Z,27.83
2018-03-08T06:47:49.354Z,28.63
2018-03-08T06:50:16.963Z,39.07
2018-03-08T06:52:44.510Z,26.77
2018-03-08T06:55:12.082Z,26.47
2018-03-08T06:57:39.829Z,32.27
2018-03-08T07:00:07.382Z,27.70
2018-03-08T07:02:34.931Z,27.47
2018-03-08T07:05:02.658Z,27.13
2018-03-08T07:07:30.194Z,28.70
2018-03-08T07:09:57.750Z,26.30
2018-03-08T07:12:25.340Z,20.57
2018-03-08T07:14:52.885Z,18.17
2018-03-08T07:17:20.429Z,17.87
2018-03-08T07:19:48.918Z,22.27
2018-03-08T07:22:16.482Z,25.47
2018-03-08T07:24:44.803Z,24.20
2018-03-08T07:27:12.377Z,23.00
2018-03-08T07:29:39.926Z,23.07
2018-03-08T07:32:07.483Z,23.33
2018-03-08T07:34:35.107Z,23.47
2018-03-08T07:37:02.667Z,22.53
2018-03-08T07:39:30.215Z,21.20
2018-03-08T07:41:57.788Z,22.07
2018-03-08T07:44:25.344Z,32.10
2018-03-08T07:46:52.900Z,22.87
2018-03-08T07:49:20.518Z,22.70
2018-03-08T07:51:48.076Z,21.43
2018-03-08T07:54:15.652Z,23.07
2018-03-08T07:56:43.408Z,24.60
2018-03-08T07:59:10.957Z,23.40
2018-03-08T08:01:38.527Z,23.20
2018-03-08T08:04:06.220Z,30.80
2018-03-08T08:06:45.321Z,25.17
2018-03-08T08:09:12.994Z,27.07
2018-03-08T08:11:40.530Z,38.57
2018-03-08T08:14:08.083Z,33.50
2018-03-08T08:16:35.666Z,26.57
2018-03-08T08:19:03.267Z,23.30
2018-03-08T08:21:30.815Z,26.43
2018-03-08T08:23:58.671Z,23.17
2018-03-08T08:26:26.216Z,26.60
2018-03-08T08:28:53.775Z,25.00
2018-03-08T08:31:21.491Z,35.57
2018-03-08T08:33:49.044Z,29.73
2018-03-08T08:36:16.582Z,27.73
2018-03-08T08:38:44.169Z,22.07
2018-03-08T08:41:12.070Z,22.70
2018-03-08T08:43:39.623Z,22.53
2018-03-08T08:46:07.203Z,22.40
2018-03-08T08:48:34.748Z,22.93
2018-03-08T08:51:02.315Z,23.93
2018-03-08T08:53:30.064Z,24.10
2018-03-08T08:55:57.618Z,23.20
2018-03-08T08:58:25.167Z,24.53
2018-03-08T09:00:52.911Z,24.43
2018-03-08T09:03:20.475Z,25.07
2018-03-08T09:05:48.039Z,34.37
2018-03-08T09:08:16.333Z,26.87
2018-03-08T09:10:43.889Z,25.63
2018-03-08T09:13:11.438Z,26.70
2018-03-08T09:15:39.317Z,26.27
2018-03-08T09:18:06.895Z,25.93
2018-03-08T09:20:34.456Z,27.20
2018-03-08T09:23:02.192Z,27.97
2018-03-08T09:25:29.765Z,27.23
2018-03-08T09:27:57.327Z,27.57
2018-03-08T09:30:25.200Z,30.27
2018-03-08T09:32:52.757Z,27.70
2018-03-08T09:35:20.311Z,30.27
2018-03-08T09:37:47.903Z,31.60
2018-03-08T09:40:15.464Z,35.33
2018-03-08T09:42:43.023Z,37.07
2018-03-08T09:45:10.599Z,31.73
2018-03-08T09:47:38.182Z,32.33
2018-03-08T09:50:05.738Z,32.63
2018-03-08T09:52:33.344Z,32.27
2018-03-08T09:55:00.910Z,31.63
2018-03-08T09:57:28.490Z,27.17
2018-03-08T09:59:56.073Z,25.80
2018-03-08T10:02:23.635Z,26.43
2018-03-08T10:04:51.182Z,22.70
2018-03-08T10:07:18.760Z,21.57
2018-03-08T10:09:46.330Z,22.20
2018-03-08T10:12:13.874Z,16.33
2018-03-08T10:14:41.581Z,19.80
2018-03-08T10:17:09.143Z,22.27
2018-03-08T10:19:36.751Z,21.80
2018-03-08T10:22:04.318Z,21.53
2018-03-08T10:24:31.874Z,21.50
2018-03-08T10:26:59.415Z,20.57
2018-03-08T10:29:27.118Z,21.33
2018-03-08T10:31:54.673Z,18.83
2018-03-08T10:34:22.231Z,15.63
2018-03-08T10:36:49.913Z,15.73
2018-03-08T10:41:45.076Z,15.10
2018-03-08T10:44:12.667Z,15.73
2018-03-08T10:46:40.222Z,16.20
2018-03-08T10:49:07.804Z,13.90
2018-03-08T10:51:35.586Z,14.70
2018-03-08T10:54:03.157Z,53.03
2018-03-08T10:56:30.717Z,73.07
2018-03-08T10:58:58.613Z,17.70
2018-03-08T11:01:26.187Z,7.83
2018-03-08T11:03:55.522Z,10.10
2018-03-08T11:06:34.839Z,11.70
2018-03-08T11:09:02.412Z,31.10
2018-03-08T11:11:29.962Z,14.90
2018-03-08T11:13:57.706Z,10.27
2018-03-08T11:16:25.270Z,28.33
2018-03-08T11:18:52.826Z,31.70
2018-03-08T11:21:20.413Z,9.23
2018-03-08T11:23:47.968Z,8.47
2018-03-08T11:26:15.517Z,8.70
2018-03-08T11:28:43.251Z,8.57
2018-03-08T11:31:10.795Z,9.53
2018-03-08T11:33:38.346Z,12.47
2018-03-08T11:36:05.933Z,13.30
2018-03-08T11:38:33.487Z,13.97
2018-03-08T11:41:01.833Z,14.77
2018-03-08T11:43:28.657Z,14.50
2018-03-08T11:45:56.217Z,14.57
2018-03-08T11:48:23.776Z,14.67
2018-03-08T11:50:51.375Z,14.73
2018-03-08T11:53:18.921Z,25.23
2018-03-08T11:55:46.479Z,14.50
2018-03-08T11:58:14.206Z,12.07
2018-03-08T12:00:43.384Z,21.43
2018-03-08T12:03:10.943Z,11.17
2018-03-08T12:05:38.809Z,10.40
2018-03-08T12:08:06.358Z,9.53
2018-03-08T12:10:33.903Z,7.33
2018-03-08T12:13:01.636Z,6.97
2018-03-08T12:15:29.178Z,7.67
2018-03-08T12:17:56.767Z,6.37
2018-03-08T12:20:24.434Z,6.13
2018-03-08T12:22:52.025Z,6.63
2018-03-08T12:25:19.569Z,7.67
2018-03-08T12:27:47.162Z,6.80
2018-03-08T12:30:14.708Z,6.63
2018-03-08T12:32:42.253Z,7.87
2018-03-08T12:35:10.071Z,13.93
2018-03-08T12:37:37.622Z,20.43
2018-03-08T12:40:05.188Z,13.73
2018-03-08T12:42:32.776Z,10.90
2018-03-08T12:45:00.344Z,35.50
2018-03-08T12:47:27.899Z,27.00
2018-03-08T12:49:55.774Z,40.43
2018-03-08T12:52:23.326Z,15.10
2018-03-08T12:54:50.884Z,14.37
2018-03-08T12:57:18.649Z,11.03
2018-03-08T12:59:46.177Z,12.63
2018-03-08T13:02:13.727Z,11.67
2018-03-08T13:04:41.606Z,1.90
2018-03-08T13:07:09.153Z,1.80
2018-03-08T13:09:36.706Z,1.90
2018-03-08T13:12:04.291Z,2.37
2018-03-08T13:14:31.830Z,2.23
2018-03-08T13:16:59.395Z,1.30
2018-03-08T13:19:26.968Z,0.70
2018-03-08T13:21:54.507Z,1.20
2018-03-08T13:24:22.093Z,1.20
2018-03-08T13:26:49.627Z,1.30
2018-03-08T13:29:17.163Z,1.07
2018-03-08T13:31:44.776Z,1.47
2018-03-08T13:34:12.325Z,2.70
2018-03-08T13:36:39.875Z,3.07
2018-03-08T13:39:07.602Z,2.27
2018-03-08T13:41:35.141Z,1.33
2018-03-08T13:44:02.678Z,1.90
2018-03-08T13:46:30.238Z,2.80
2018-03-08T13:48:57.825Z,2.77
2018-03-08T13:51:25.368Z,2.83
2018-03-08T13:53:52.934Z,3.50
2018-03-08T13:56:20.496Z,4.63
2018-03-08T13:58:48.040Z,4.73
2018-03-08T14:01:15.639Z,6.43
2018-03-08T14:03:43.191Z,12.00
2018-03-08T14:06:10.735Z,6.60
2018-03-08T14:08:38.314Z,6.43
2018-03-08T14:11:05.903Z,6.80
2018-03-08T14:13:33.444Z,5.00
2018-03-08T14:16:01.190Z,4.07
2018-03-08T14:18:28.751Z,4.47
2018-03-08T14:20:56.294Z,3.63
2018-03-08T14:23:23.882Z,4.17
2018-03-08T14:25:51.431Z,3.40
2018-03-08T14:28:18.964Z,7.00
2018-03-08T14:30:46.558Z,9.20
2018-03-08T14:33:14.134Z,10.87
2018-03-08T14:35:41.673Z,10.50
2018-03-08T14:38:09.243Z,11.47
2018-03-08T14:40:36.797Z,10.33
2018-03-08T14:43:04.350Z,11.30
2018-03-08T14:45:31.926Z,9.03
2018-03-08T14:47:59.472Z,7.50
2018-03-08T14:50:27.026Z,7.10
2018-03-08T14:52:54.710Z,6.57
2018-03-08T14:55:22.283Z,7.53
2018-03-08T14:57:49.824Z,5.90
2018-03-08T15:00:17.560Z,6.17
2018-03-08T15:02:45.100Z,5.70
2018-03-08T15:05:12.643Z,4.97
2018-03-08T15:07:40.211Z,4.07
2018-03-08T15:10:07.772Z,4.20
2018-03-08T15:12:35.345Z,4.33
2018-03-08T15:15:03.013Z,3.47
2018-03-08T15:17:30.551Z,3.00
2018-03-08T15:19:58.103Z,3.63
2018-03-08T15:22:25.773Z,2.50
2018-03-08T15:24:53.307Z,1.97
2018-03-08T15:27:20.857Z,2.30
2018-03-08T15:29:48.734Z,1.83
2018-03-08T15:32:16.286Z,2.20
2018-03-08T15:34:43.824Z,2.70
2018-03-08T15:37:11.501Z,2.83
2018-03-08T15:39:39.051Z,3.63
2018-03-08T15:42:06.598Z,4.37
2018-03-08T15:44:34.196Z,3.67
2018-03-08T15:47:01.738Z,3.70
2018-03-08T15:49:29.273Z,4.03
2018-03-08T15:51:57.124Z,4.00
2018-03-08T15:54:24.653Z,3.50
2018-03-08T15:56:52.191Z,2.60
2018-03-08T15:59:19.922Z,3.33
2018-03-08T16:01:47.482Z,3.50
2018-03-08T16:04:15.024Z,3.73
2018-03-08T16:10:15.240Z,3.40
2018-03-08T16:12:42.965Z,3.97
2018-03-08T16:15:10.515Z,3.50
2018-03-08T16:17:38.057Z,3.60
2018-03-08T16:20:05.596Z,4.30
2018-03-08T16:22:33.125Z,3.33
2018-03-08T16:25:00.973Z,3.67
2018-03-08T16:27:28.514Z,4.00
2018-03-08T16:29:56.070Z,3.80
2018-03-08T16:32:23.640Z,6.43
2018-03-08T16:34:51.188Z,4.70
2018-03-08T16:37:18.727Z,4.27
2018-03-08T16:39:46.578Z,4.17
2018-03-08T16:42:14.118Z,4.73
2018-03-08T16:44:41.706Z,4.50
2018-03-08T16:47:09.264Z,3.33
2018-03-08T16:49:36.809Z,3.50
2018-03-08T16:52:04.346Z,3.23
2018-03-08T16:54:31.913Z,3.67
2018-03-08T16:56:59.452Z,3.47
2018-03-08T16:59:26.994Z,4.20
2018-03-08T17:01:54.879Z,4.10
2018-03-08T17:04:22.422Z,4.00
2018-03-08T17:06:49.970Z,3.70
2018-03-08T17:09:17.693Z,4.57
2018-03-08T17:11:45.219Z,5.90
2018-03-08T17:14:12.769Z,6.27
2018-03-08T17:16:40.493Z,6.47
2018-03-08T17:19:08.027Z,5.03
2018-03-08T17:21:35.560Z,4.90
2018-03-08T17:24:03.151Z,4.90
2018-03-08T17:26:31.574Z,5.57
2018-03-08T17:28:59.107Z,5.67
2018-03-08T17:31:26.831Z,5.70
2018-03-08T17:33:54.398Z,5.23
2018-03-08T17:36:21.936Z,4.33
2018-03-08T17:38:49.516Z,5.27
2018-03-08T17:41:17.060Z,4.83
2018-03-08T17:43:44.596Z,3.40
2018-03-08T17:46:12.186Z,3.27
2018-03-08T17:48:39.718Z,4.10
2018-03-08T17:51:07.269Z,4.13
2018-03-08T17:53:34.858Z,13.77
2018-03-08T17:56:02.439Z,9.90
2018-03-08T17:58:29.970Z,7.10
2018-03-08T18:00:57.656Z,6.03
2018-03-08T18:03:25.198Z,4.73
2018-03-08T18:05:52.733Z,7.93
2018-03-08T18:08:20.458Z,5.30
2018-03-08T18:10:47.999Z,5.03
2018-03-08T18:13:15.562Z,5.33
2018-03-08T18:15:43.290Z,4.00
2018-03-08T18:18:10.830Z,3.70
2018-03-08T18:20:38.375Z,4.17
2018-03-08T18:23:06.069Z,4.83
2018-03-08T18:25:33.614Z,6.13
2018-03-08T18:28:01.169Z,5.00
2018-03-08T18:30:28.863Z,5.63
2018-03-08T18:32:56.422Z,4.70
2018-03-08T18:35:23.970Z,5.13
2018-03-08T18:37:51.696Z,5.70
2018-03-08T18:40:19.238Z,21.37
2018-03-08T18:42:46.783Z,8.13
2018-03-08T18:45:14.499Z,5.83
2018-03-08T18:47:42.054Z,4.60
2018-03-08T18:50:09.606Z,6.67
2018-03-08T18:52:37.642Z,3.80
2018-03-08T18:55:05.190Z,4.30
2018-03-08T18:57:32.749Z,4.20
2018-03-08T19:00:00.340Z,6.97
2018-03-08T19:02:27.887Z,7.47
2018-03-08T19:04:55.434Z,8.03
2018-03-08T19:07:23.025Z,4.80
2018-03-08T19:09:50.618Z,8.53
2018-03-08T19:12:18.164Z,8.80
2018-03-08T19:14:46.026Z,7.93
2018-03-08T19:17:13.592Z,9.40
2018-03-08T19:19:41.147Z,5.40
2018-03-08T19:22:08.829Z,6.50
2018-03-08T19:24:36.379Z,33.87
2018-03-08T19:27:03.944Z,28.00
2018-03-08T19:29:31.894Z,13.57
2018-03-08T19:31:59.447Z,16.23
2018-03-08T19:34:26.980Z,5.60
2018-03-08T19:36:54.740Z,11.03
2018-03-08T19:39:22.297Z,7.70
2018-03-08T19:41:49.886Z,3.63
2018-03-08T19:44:17.492Z,3.10
2018-03-08T19:46:45.062Z,4.27
2018-03-08T19:49:12.657Z,4.43
2018-03-08T19:51:40.258Z,4.10
2018-03-08T19:54:07.844Z,3.90
2018-03-08T19:56:35.400Z,7.20
2018-03-08T19:59:02.994Z,5.93
2018-03-08T20:01:30.555Z,4.33
2018-03-08T20:03:58.107Z,4.50
2018-03-08T20:06:25.679Z,3.97
2018-03-08T20:08:53.284Z,4.13
2018-03-08T20:11:20.840Z,4.93
2018-03-08T20:13:48.427Z,3.67
2018-03-08T20:16:15.958Z,4.63
2018-03-08T20:18:43.509Z,12.10
2018-03-08T20:21:11.117Z,8.80
2018-03-08T20:23:38.659Z,6.13
2018-03-08T20:26:06.201Z,4.20
2018-03-08T20:28:33.784Z,4.90
2018-03-08T20:31:01.323Z,4.70
2018-03-08T20:33:28.886Z,3.60
2018-03-08T20:35:56.480Z,3.80
2018-03-08T20:38:24.048Z,4.70
2018-03-08T20:40:51.608Z,4.37
2018-03-08T20:43:19.200Z,4.37
2018-03-08T20:45:46.743Z,4.70
2018-03-08T20:48:14.332Z,4.63
2018-03-08T20:50:42.011Z,5.23
2018-03-08T20:53:09.564Z,4.73
2018-03-08T20:55:37.098Z,4.17
2018-03-08T20:58:04.834Z,4.27
2018-03-08T21:00:32.406Z,4.73
2018-03-08T21:02:59.952Z,5.60
2018-03-08T21:05:27.743Z,6.53
2018-03-08T21:07:55.283Z,4.73
2018-03-08T21:10:22.839Z,8.23
2018-03-08T21:12:50.426Z,5.13
2018-03-08T21:15:18.035Z,4.83
2018-03-08T21:17:45.604Z,7.23
2018-03-08T21:20:13.150Z,6.13
2018-03-08T21:22:40.700Z,7.73
2018-03-08T21:25:08.332Z,10.33
2018-03-08T21:27:35.894Z,7.40
2018-03-08T21:30:03.524Z,8.63
2018-03-08T21:32:31.400Z,11.93
2018-03-08T21:34:58.989Z,7.90
2018-03-08T21:37:26.551Z,8.00
2018-03-08T21:39:54.166Z,7.60
2018-03-08T21:42:21.717Z,7.60
2018-03-08T21:44:49.262Z,8.10
2018-03-08T21:47:17.128Z,7.20
2018-03-08T21:49:44.676Z,9.00
2018-03-08T21:52:12.216Z,9.43
2018-03-08T21:54:39.824Z,9.50
2018-03-08T21:57:07.382Z,8.73
2018-03-08T21:59:34.928Z,7.93
2018-03-08T22:02:02.503Z,8.73
2018-03-08T22:04:30.054Z,9.83
2018-03-08T22:06:57.591Z,9.63
2018-03-08T22:09:25.183Z,11.33
2018-03-08T22:11:52.739Z,10.17
2018-03-08T22:14:20.279Z,9.40
2018-03-08T22:16:47.865Z,10.63
2018-03-08T22:19:15.454Z,10.67
2018-03-08T22:21:42.997Z,10.07
2018-03-08T22:24:11.037Z,10.33
2018-03-08T22:26:38.583Z,9.17
2018-03-08T22:29:06.114Z,9.77
2018-03-08T22:31:33.941Z,9.83
2018-03-08T22:34:01.489Z,9.00
2018-03-08T22:36:29.039Z,9.43
2018-03-08T22:38:56.812Z,9.90
2018-03-08T22:41:24.362Z,8.60
2018-03-08T22:43:51.925Z,8.70
2018-03-08T22:46:19.500Z,9.43
2018-03-08T22:48:47.059Z,7.17
2018-03-08T22:51:14.627Z,7.93
2018-03-08T22:53:42.198Z,7.80
2018-03-08T22:56:09.750Z,9.17
2018-03-08T22:58:37.285Z,8.17
2018-03-08T23:01:04.847Z,9.17
2018-03-08T23:03:32.392Z,8.13
2018-03-08T23:05:59.975Z,8.97
2018-03-08T23:08:27.575Z,8.53
2018-03-08T23:10:55.114Z,8.40
2018-03-08T23:13:22.658Z,7.93
2018-03-08T23:15:50.249Z,8.43
2018-03-08T23:18:17.795Z,8.00
2018-03-08T23:20:45.339Z,8.80
2018-03-08T23:23:12.924Z,8.90
2018-03-08T23:25:40.469Z,8.17
2018-03-08T23:28:08.028Z,10.30
2018-03-08T23:30:35.624Z,9.10
2018-03-08T23:33:03.161Z,8.50
2018-03-08T23:35:30.695Z,8.17
2018-03-08T23:37:58.358Z,7.90
2018-03-08T23:40:25.938Z,9.87
2018-03-08T23:42:54.015Z,9.60
2018-03-08T23:45:21.700Z,8.20
2018-03-08T23:47:49.243Z,9.57
2018-03-08T23:50:16.790Z,10.40
2018-03-08T23:52:44.379Z,9.30
2018-03-08T23:55:11.921Z,8.93
2018-03-08T23:57:39.451Z,7.30
